Keokuk, IA

6:27 PM CST on December 26, 2014 (GMT -0600)
Burlington Regional | Change Station
CLOSE
Current Station
Airport
Location: Burlington,
Elevation: 696 ft
Nearby Weather Stations

Elev 696 ft 40.78 °N, 91.13 °W | Updated 34 minutes ago

Overcast
Overcast
50 °F
Feels Like 50 °F
N
5
Wind Variable Wind from SE

Today
High -- | Low -- °F
--% Chance of Precip.
Yesterday
High -- | Low -- °F
Precip. -- in
7:27 AM 4:45 PM
Waxing Crescent, 30% visible
Pressure 29.97 in
Visibility 10.0 miles
Clouds Few 3900 ft
Overcast 5000 ft
Dew Point 42 °F
Humidity 74%
Rainfall 0.00 in
Snow Depth Not available.
UV 0 out of 12
Pollen .10 out of 12
Air Quality Not available.
Flu Activity Not available.
METAR KBRL 262353Z AUTO 14004KT 10SM FEW039 OVC050 10/06 A2996 RMK AO2 SLP147 T01000056 10122 20089 50003

More Conditions Fewer Conditions

Pressure 29.97 in
Visibility 10.0 miles
Clouds Few 3900 ft
Overcast 5000 ft
Dew Point 42 °F
Humidity 74%
Rainfall 0.00 in
Snow Depth Not available.
UV 0 out of 12
Pollen .10 out of 12
Air Quality Not available.
Flu Activity Not available.
METAR KBRL 262353Z AUTO 14004KT 10SM FEW039 OVC050 10/06 A2996 RMK AO2 SLP147 T01000056 10122 20089 50003

More Conditions Fewer Conditions

10-Day Weather Forecast

Almanac

Astronomy

Dec. 26, 2014 Rise Set
Actual Time
Civil Twilight
Nautical Twilight
Astronomical Twilight
Moon
Length of Visible Light
Length of Day
Tomorrow will be .
, % of the Moon is Illuminated

Today's Extremes

State Highs State Lows

Community

WunderPhotos

Upload Photos

1,780,794 photos uploaded!

WunderBlogs® & News

Nearby

Air Quality

  Air Quality AQ Index Pollutant
Not available.

Snow Depth

Station Depth Elevation

Earthquake Activity

City Distance Mag. Time & Date
Minimum magnitude displayed is 2.5.

Coastal Water Temperatures

Place Temperature

Nearby Weather Stations